Time;durP1;ratioP1;P1;durP2;ratioP2;P2;SDS_P1;SDS_P2;PMS_P1;PMS_P2;Temp;Humidity;BMP_temperature;BMP_pressure;BME280_temperature;BME280_humidity;BME280_pressure;Samples;Min_cycle;Max_cycle;Signal;HPM_P1;HPM_P2
2022/07/20 00:00:19;;;;;;;6.55;3.78;;;;;;;26.40;31.78;101195.59;5060800;28;20497;-68
2022/07/20 00:02:45;;;;;;;11.98;3.33;;;;;;;26.72;30.83;101194.69;5056035;28;20389;-68
2022/07/20 00:05:11;;;;;;;6.05;3.65;;;;;;;26.76;31.06;101202.22;5047752;28;20049;-68
2022/07/20 00:07:38;;;;;;;6.65;3.40;;;;;;;26.61;31.61;101199.41;5045178;28;20652;-68
2022/07/20 00:12:50;;;;;;;5.35;3.42;;;;;;;26.84;30.91;101191.47;5053054;28;20051;-68
2022/07/20 00:15:16;;;;;;;6.40;3.35;;;;;;;26.52;32.20;101188.84;5082454;28;20057;-68
2022/07/20 00:17:43;;;;;;;7.35;3.28;;;;;;;26.58;32.71;101188.16;5088158;28;20081;-68
2022/07/20 00:20:10;;;;;;;16.63;3.55;;;;;;;26.53;32.06;101190.53;5087416;28;20086;-68
2022/07/20 00:22:37;;;;;;;6.53;3.60;;;;;;;26.18;33.25;101197.13;5084311;28;20050;-68
2022/07/20 00:25:04;;;;;;;6.25;3.60;;;;;;;25.60;34.25;101199.94;5066799;28;20064;-68
2022/07/20 00:27:31;;;;;;;7.15;3.08;;;;;;;24.59;34.65;101212.38;5066540;28;20056;-68
2022/07/20 00:29:58;;;;;;;8.93;3.92;;;;;;;24.60;35.03;101208.72;5066271;28;20181;-68
2022/07/20 00:32:24;;;;;;;7.28;3.55;;;;;;;25.21;34.67;101207.66;5068618;28;20100;-68
2022/07/20 00:34:50;;;;;;;9.63;3.63;;;;;;;25.70;33.50;101197.94;5066286;28;20040;-68
2022/07/20 00:37:17;;;;;;;6.47;3.97;;;;;;;25.27;34.22;101198.16;5066192;28;20201;-68
2022/07/20 00:39:43;;;;;;;12.27;3.90;;;;;;;25.16;34.88;101199.28;5074207;28;20060;-68
2022/07/20 00:42:09;;;;;;;7.18;3.63;;;;;;;25.03;35.26;101198.88;5064537;28;20557;-68
2022/07/20 00:44:37;;;;;;;7.32;3.47;;;;;;;25.23;35.54;101194.09;5060331;28;20499;-68
2022/07/20 00:47:04;;;;;;;8.07;4.03;;;;;;;25.00;35.66;101197.38;5067251;28;20072;-68
2022/07/20 00:49:30;;;;;;;9.77;4.20;;;;;;;24.34;37.04;101205.19;5064098;28;20125;-68
2022/07/20 00:51:56;;;;;;;8.10;4.13;;;;;;;24.71;36.53;101196.88;5066905;28;20040;-68
2022/07/20 00:54:24;;;;;;;9.77;3.47;;;;;;;24.77;37.63;101206.94;5050401;28;20045;-68
2022/07/20 00:56:51;;;;;;;4.78;3.67;;;;;;;24.74;37.37;101212.63;5064959;28;20041;-68
2022/07/20 00:59:17;;;;;;;7.85;3.60;;;;;;;24.47;37.75;101199.38;5056622;28;20036;-68
2022/07/20 01:01:45;;;;;;;7.05;3.47;;;;;;;24.46;37.69;101195.88;5053501;28;20507;-68
2022/07/20 01:04:11;;;;;;;6.43;3.80;;;;;;;24.17;38.13;101201.53;5056599;28;20044;-68
2022/07/20 01:06:38;;;;;;;13.23;3.97;;;;;;;24.11;37.65;101194.09;5067087;28;20049;-68
2022/07/20 01:09:04;;;;;;;8.02;3.80;;;;;;;24.11;38.68;101199.44;5065121;28;20044;-68
2022/07/20 01:11:31;;;;;;;9.55;4.00;;;;;;;24.18;39.17;101191.66;5046186;28;20045;-68
2022/07/20 01:14:02;;;;;;;9.20;4.47;;;;;;;24.16;39.36;101188.28;5045892;28;20562;-68
2022/07/20 01:16:29;;;;;;;7.32;4.10;;;;;;;24.24;38.64;101196.41;5061450;28;20044;-67
2022/07/20 01:18:57;;;;;;;9.15;3.67;;;;;;;24.12;38.80;101186.88;5064386;28;20090;-67
2022/07/20 01:21:25;;;;;;;10.57;3.92;;;;;;;24.13;39.41;101194.78;5065147;28;20082;-67
2022/07/20 01:23:51;;;;;;;7.47;3.75;;;;;;;24.07;39.18;101189.19;5071098;28;20067;-67
2022/07/20 01:26:18;;;;;;;6.95;3.67;;;;;;;24.05;39.26;101199.22;5064650;28;20044;-67
2022/07/20 01:28:45;;;;;;;5.85;3.70;;;;;;;23.99;39.22;101198.00;5064052;28;20118;-67
2022/07/20 01:31:11;;;;;;;9.90;4.07;;;;;;;24.01;39.52;101195.19;5065910;28;20412;-67
2022/07/20 01:33:38;;;;;;;8.65;4.07;;;;;;;23.75;40.60;101190.59;5065431;28;20048;-67
2022/07/20 01:36:05;;;;;;;9.10;4.25;;;;;;;23.65;41.35;101191.69;5065558;28;20052;-67
2022/07/20 01:38:32;;;;;;;5.57;4.15;;;;;;;23.27;42.71;101201.63;5066502;28;20044;-67
2022/07/20 01:40:59;;;;;;;11.05;4.43;;;;;;;23.39;42.21;101198.72;5070373;28;20066;-67
2022/07/20 01:43:26;;;;;;;6.65;4.20;;;;;;;23.11;43.91;101195.22;5063645;28;20049;-67
2022/07/20 01:45:52;;;;;;;10.75;4.38;;;;;;;23.14;43.88;101203.78;5056915;28;20102;-67
2022/07/20 01:48:18;;;;;;;8.85;3.97;;;;;;;23.31;43.22;101202.16;5044580;28;20556;-67
2022/07/20 01:50:45;;;;;;;15.93;4.40;;;;;;;23.31;43.58;101210.19;5045847;28;20041;-67
2022/07/20 01:53:11;;;;;;;6.65;3.63;;;;;;;23.10;43.89;101209.56;5063191;28;20071;-67
2022/07/20 01:55:39;;;;;;;6.80;4.07;;;;;;;23.06;42.45;101210.88;5054054;28;20045;-67
2022/07/20 01:58:05;;;;;;;5.88;4.07;;;;;;;22.96;42.26;101200.22;5049082;28;20049;-67
2022/07/20 02:00:32;;;;;;;5.68;3.92;;;;;;;22.93;42.18;101205.00;5064662;28;20114;-67
2022/07/20 02:02:59;;;;;;;8.50;4.05;;;;;;;22.86;40.82;101196.75;5065624;28;20047;-67
2022/07/20 02:05:25;;;;;;;5.35;4.07;;;;;;;22.74;42.15;101200.59;5064668;28;20501;-67
2022/07/20 02:07:51;;;;;;;13.02;4.22;;;;;;;22.77;42.02;101195.78;5066556;28;20110;-67
2022/07/20 02:10:18;;;;;;;9.98;4.13;;;;;;;22.60;41.57;101198.34;5067748;28;20546;-67
2022/07/20 02:12:45;;;;;;;6.18;4.20;;;;;;;22.61;42.09;101192.88;5070759;28;20098;-67
2022/07/20 02:16:14;;;;;;;8.95;4.10;;;;;;;22.46;42.55;101194.31;5068279;28;20044;-67
2022/07/20 02:18:00;;;;;;;9.15;4.15;;;;;;;22.53;42.55;101194.59;5053337;28;20045;-67
2022/07/20 02:20:26;;;;;;;8.38;4.35;;;;;;;22.52;42.66;101192.88;5049056;28;20053;-67
2022/07/20 02:22:52;;;;;;;8.40;4.20;;;;;;;22.42;43.03;101200.09;5049194;28;20118;-67
2022/07/20 02:25:18;;;;;;;14.18;4.57;;;;;;;22.49;42.79;101187.84;5050388;28;20056;-67
2022/07/20 02:27:46;;;;;;;13.35;4.78;;;;;;;22.44;43.04;101190.94;5048935;28;20079;-67
2022/07/20 02:30:13;;;;;;;7.72;4.32;;;;;;;22.44;43.93;101198.09;5048146;28;20497;-67
2022/07/20 02:32:40;;;;;;;7.03;3.92;;;;;;;22.32;43.89;101197.44;5049618;28;20126;-67
2022/07/20 02:35:07;;;;;;;11.05;4.63;;;;;;;22.11;44.40;101202.94;5048687;28;20123;-67
2022/07/20 02:37:33;;;;;;;9.25;4.75;;;;;;;22.11;43.83;101194.09;5066620;28;20060;-67
2022/07/20 02:39:59;;;;;;;8.88;4.47;;;;;;;21.91;44.37;101189.78;5063344;28;20040;-67
2022/07/20 02:42:26;;;;;;;7.70;4.07;;;;;;;21.76;45.09;101186.66;5048873;28;20045;-67
2022/07/20 02:44:53;;;;;;;8.18;4.20;;;;;;;21.45;46.57;101195.72;5049209;28;20478;-67
2022/07/20 02:47:20;;;;;;;9.90;4.30;;;;;;;21.48;46.87;101187.44;5053836;28;20040;-67
2022/07/20 02:49:46;;;;;;;9.02;4.28;;;;;;;21.54;46.55;101186.91;5067349;28;20103;-67
2022/07/20 02:52:12;;;;;;;9.23;4.00;;;;;;;21.69;46.14;101188.19;5049948;28;20049;-67
2022/07/20 02:54:39;;;;;;;10.30;4.53;;;;;;;21.65;46.21;101187.63;5065105;28;20504;-67
2022/07/20 02:57:05;;;;;;;7.80;4.18;;;;;;;21.26;47.61;101186.72;5068027;28;20040;-67
2022/07/20 02:59:31;;;;;;;11.23;5.60;;;;;;;21.27;47.85;101188.41;5070275;28;20044;-67
2022/07/20 03:01:59;;;;;;;7.57;4.00;;;;;;;21.21;48.40;101185.44;5068624;28;20086;-67
2022/07/20 03:04:32;;;;;;;6.57;4.05;;;;;;;21.04;48.36;101184.22;5062179;28;20045;-67
2022/07/20 03:06:59;;;;;;;7.47;4.30;;;;;;;21.03;49.25;101189.69;5102745;28;20047;-67
2022/07/20 03:09:25;;;;;;;8.27;4.30;;;;;;;20.98;49.04;101186.59;5065371;28;20103;-67
2022/07/20 03:11:51;;;;;;;7.57;4.57;;;;;;;21.00;48.75;101185.47;5048322;28;20041;-67
2022/07/20 03:14:18;;;;;;;8.82;4.38;;;;;;;21.00;46.54;101187.28;5048314;28;20094;-67
2022/07/20 03:16:44;;;;;;;10.57;4.70;;;;;;;21.24;48.67;101183.34;5052191;28;20052;-68
2022/07/20 03:19:12;;;;;;;13.98;4.40;;;;;;;21.10;48.58;101185.53;5067452;28;20535;-68
2022/07/20 03:21:38;;;;;;;11.43;4.45;;;;;;;21.07;48.51;101194.63;5067072;28;20040;-68
2022/07/20 03:24:05;;;;;;;9.80;4.63;;;;;;;21.00;47.76;101193.47;5074579;28;20090;-68
2022/07/20 03:26:31;;;;;;;9.75;4.47;;;;;;;21.17;48.07;101192.88;5068253;28;20044;-68
2022/07/20 03:28:58;;;;;;;6.53;4.25;;;;;;;21.15;47.79;101197.50;5068072;28;20049;-68
2022/07/20 03:31:24;;;;;;;7.60;4.40;;;;;;;21.02;47.93;101190.69;5056967;28;22097;-68
2022/07/20 03:33:50;;;;;;;8.73;4.60;;;;;;;21.39;46.99;101185.63;5065805;28;20561;-68
2022/07/20 03:36:18;;;;;;;12.52;5.80;;;;;;;21.33;46.99;101184.34;5068854;28;20068;-68
2022/07/20 03:38:44;;;;;;;6.57;4.68;;;;;;;21.16;48.11;101185.00;5067950;28;20053;-68
2022/07/20 03:41:11;;;;;;;8.80;4.85;;;;;;;20.94;48.03;101195.84;5067079;28;20420;-67
2022/07/20 03:43:37;;;;;;;7.55;4.43;;;;;;;21.05;48.71;101199.25;5069498;28;20063;-67
2022/07/20 03:46:03;;;;;;;16.63;4.82;;;;;;;21.19;48.35;101198.91;5064485;28;20109;-67
2022/07/20 03:48:30;;;;;;;8.13;4.70;;;;;;;21.32;48.53;101204.81;5048100;28;20096;-67
2022/07/20 03:50:56;;;;;;;10.95;4.50;;;;;;;21.29;48.13;101202.44;5047525;28;20041;-67
2022/07/20 03:53:24;;;;;;;14.73;4.85;;;;;;;21.30;48.31;101201.47;5063659;28;20099;-67
2022/07/20 03:55:50;;;;;;;14.90;5.22;;;;;;;21.48;47.74;101200.78;5052137;28;20740;-67
2022/07/20 03:58:17;;;;;;;9.82;4.63;;;;;;;21.57;47.63;101197.31;5067435;28;20097;-68
2022/07/20 04:00:43;;;;;;;10.40;4.90;;;;;;;21.77;47.47;101204.31;5068145;28;20396;-68
2022/07/20 04:03:09;;;;;;;11.93;4.80;;;;;;;22.01;46.66;101204.81;5067630;28;20056;-68
2022/07/20 04:05:36;;;;;;;11.88;5.00;;;;;;;21.79;47.84;101205.06;5068475;28;20062;-68
2022/07/20 04:08:02;;;;;;;7.22;4.88;;;;;;;21.93;48.01;101212.66;5067591;28;20041;-68
2022/07/20 04:10:30;;;;;;;21.45;6.68;;;;;;;21.81;50.12;101213.75;5066264;28;20048;-68
2022/07/20 04:12:56;;;;;;;7.43;5.10;;;;;;;21.89;48.31;101213.91;5068107;28;20130;-68
2022/07/20 04:15:22;;;;;;;7.80;5.38;;;;;;;22.04;47.67;101209.00;5066598;28;20093;-68
2022/07/20 04:17:49;;;;;;;8.50;5.07;;;;;;;22.12;48.08;101210.00;5056720;28;20045;-68
2022/07/20 04:20:15;;;;;;;7.80;4.65;;;;;;;22.05;48.86;101203.53;5048410;28;20484;-68
2022/07/20 04:22:41;;;;;;;7.78;4.75;;;;;;;21.99;48.10;101216.63;5051959;28;20097;-68
2022/07/20 04:25:08;;;;;;;13.30;5.55;;;;;;;22.14;47.82;101212.50;5053398;28;20044;-68
2022/07/20 04:27:36;;;;;;;11.90;4.90;;;;;;;22.45;47.68;101218.50;5067650;28;20057;-68
2022/07/20 04:30:03;;;;;;;14.07;5.68;;;;;;;22.51;47.08;101217.91;5065824;28;20048;-68
2022/07/20 04:32:30;;;;;;;10.57;5.18;;;;;;;22.33;47.33;101216.00;5066059;28;20040;-68
2022/07/20 04:34:56;;;;;;;10.93;5.45;;;;;;;22.48;47.25;101221.72;5063552;28;20118;-68
2022/07/20 04:37:23;;;;;;;8.77;5.03;;;;;;;22.28;48.34;101217.44;5060087;28;20048;-68
2022/07/20 04:39:49;;;;;;;10.05;5.20;;;;;;;21.93;48.79;101225.16;5066057;28;20040;-68
2022/07/20 04:42:16;;;;;;;7.13;5.25;;;;;;;22.14;49.13;101231.19;5067317;28;20052;-68
2022/07/20 04:44:44;;;;;;;9.77;5.72;;;;;;;22.04;49.68;101231.22;5066747;28;20041;-68
2022/07/20 04:47:10;;;;;;;20.25;5.30;;;;;;;22.04;48.48;101231.22;5054035;28;20041;-68
2022/07/20 04:49:36;;;;;;;9.88;5.13;;;;;;;21.93;47.45;101226.00;5065088;28;20066;-68
2022/07/20 04:52:03;;;;;;;9.20;5.22;;;;;;;22.06;47.65;101221.22;5067659;28;20118;-68
2022/07/20 04:54:29;;;;;;;9.65;5.00;;;;;;;22.28;46.57;101218.25;5057141;28;20412;-68
2022/07/20 04:56:55;;;;;;;8.27;5.03;;;;;;;22.56;46.25;101221.84;5052319;28;20519;-68
2022/07/20 04:59:22;;;;;;;12.35;5.07;;;;;;;22.70;45.72;101223.25;5056536;28;20094;-68
2022/07/20 05:01:50;;;;;;;9.93;5.18;;;;;;;22.92;46.01;101220.22;5066227;28;20129;-68
2022/07/20 05:04:16;;;;;;;6.68;4.40;;;;;;;23.10;45.73;101225.63;5065016;28;20055;-68
2022/07/20 05:06:42;;;;;;;8.93;5.65;;;;;;;23.39;45.20;101223.63;5063610;28;20048;-68
2022/07/20 05:09:10;;;;;;;7.93;4.82;;;;;;;24.05;45.04;101221.50;5065015;28;20052;-68
2022/07/20 05:11:36;;;;;;;6.40;4.70;;;;;;;23.83;43.96;101219.28;5065685;28;20118;-68
2022/07/20 05:14:03;;;;;;;11.00;5.32;;;;;;;23.96;45.71;101217.06;5065555;28;20045;-68
2022/07/20 05:16:30;;;;;;;9.35;4.70;;;;;;;24.33;44.55;101226.75;5064795;28;20048;-67
2022/07/20 05:18:58;;;;;;;8.57;5.03;;;;;;;24.21;44.74;101224.34;5064543;28;20466;-68
2022/07/20 05:21:24;;;;;;;11.93;4.75;;;;;;;24.54;43.45;101229.91;5065091;28;20458;-68
2022/07/20 05:23:51;;;;;;;6.53;4.65;;;;;;;24.71;42.72;101231.72;5063101;28;20509;-68
2022/07/20 05:26:17;;;;;;;8.25;4.97;;;;;;;24.99;42.41;101233.25;5056222;28;20086;-68
2022/07/20 05:28:43;;;;;;;9.88;5.30;;;;;;;25.17;42.48;101228.63;5065035;28;20040;-68
2022/07/20 05:31:13;;;;;;;7.03;5.20;;;;;;;25.34;42.41;101228.69;5065788;28;20461;-67
2022/07/20 05:33:39;;;;;;;7.90;4.63;;;;;;;25.53;41.46;101228.47;5064371;28;20131;-68
2022/07/20 05:36:08;;;;;;;14.57;5.35;;;;;;;26.12;40.49;101225.50;5064901;28;20048;-67
2022/07/20 05:38:34;;;;;;;10.05;4.70;;;;;;;26.11;40.30;101222.97;5066281;28;20044;-67
2022/07/20 05:41:00;;;;;;;13.07;4.40;;;;;;;25.96;40.29;101225.50;5068329;28;20112;-68
2022/07/20 05:43:27;;;;;;;6.40;4.55;;;;;;;26.45;39.70;101230.91;5083389;28;20044;-68
2022/07/20 05:45:59;;;;;;;8.50;4.68;;;;;;;25.99;40.02;101219.78;5068545;28;20044;-68
2022/07/20 05:48:26;;;;;;;9.70;4.70;;;;;;;26.46;39.80;101227.19;5045431;28;20056;-68
2022/07/20 05:50:52;;;;;;;8.43;5.65;;;;;;;27.30;38.02;101229.31;5044683;28;20048;-68
2022/07/20 05:53:20;;;;;;;9.68;4.80;;;;;;;27.42;37.03;101226.03;5061392;28;20052;-68
2022/07/20 05:55:46;;;;;;;11.27;4.53;;;;;;;26.86;38.13;101234.38;5066417;28;20117;-68
2022/07/20 05:58:13;;;;;;;6.97;4.47;;;;;;;27.50;37.23;101223.34;5064571;28;20083;-68
2022/07/20 06:00:40;;;;;;;8.38;4.68;;;;;;;27.68;36.74;101236.53;5065977;28;20049;-68
2022/07/20 06:03:07;;;;;;;10.40;4.47;;;;;;;27.59;36.78;101226.81;5063774;28;20436;-68
2022/07/20 06:05:34;;;;;;;8.45;4.28;;;;;;;27.82;36.35;101226.84;5065172;28;20052;-68
2022/07/20 06:08:02;;;;;;;7.03;4.35;;;;;;;27.91;36.18;101228.44;5066683;28;20045;-68
2022/07/20 06:10:31;;;;;;;9.85;4.60;;;;;;;27.97;36.00;101233.13;5052989;28;20626;-67
2022/07/20 06:12:57;;;;;;;11.02;4.40;;;;;;;28.67;34.54;101235.56;5059458;28;20041;-67
2022/07/20 06:15:25;;;;;;;10.52;4.63;;;;;;;28.34;34.98;101232.34;5056584;28;20130;-67
2022/07/20 06:17:54;;;;;;;12.25;4.30;;;;;;;28.51;35.63;101239.25;5061779;28;20049;-68
2022/07/20 06:20:21;;;;;;;9.13;4.40;;;;;;;29.35;33.52;101235.28;5050449;28;20053;-68
2022/07/20 06:22:48;;;;;;;9.57;4.75;;;;;;;28.83;34.05;101240.81;5047569;28;20044;-68
2022/07/20 06:25:16;;;;;;;9.93;4.30;;;;;;;28.91;34.25;101241.56;5050804;28;20515;-68
2022/07/20 06:27:44;;;;;;;11.20;4.45;;;;;;;29.24;33.82;101235.75;5065302;28;20423;-68
2022/07/20 06:30:12;;;;;;;8.10;4.60;;;;;;;29.35;33.50;101230.75;5065373;28;20072;-67
2022/07/20 06:32:39;;;;;;;12.52;4.05;;;;;;;30.17;32.42;101224.97;5064955;28;20053;-67
2022/07/20 06:35:06;;;;;;;10.05;4.15;;;;;;;30.35;31.56;101228.03;5059556;28;20262;-67
2022/07/20 06:37:33;;;;;;;9.05;4.20;;;;;;;30.87;30.71;101233.84;5057877;28;20465;-67
2022/07/20 06:39:59;;;;;;;9.45;3.95;;;;;;;30.60;31.88;101220.34;5063855;28;20096;-72
2022/07/20 06:42:25;;;;;;;9.98;4.20;;;;;;;29.57;32.42;101226.22;5064922;28;20116;-67
2022/07/20 06:44:53;;;;;;;8.63;4.40;;;;;;;30.51;31.97;101224.22;5063887;28;20553;-67
2022/07/20 06:47:19;;;;;;;11.07;4.30;;;;;;;30.08;32.09;101231.56;5064990;28;20511;-67
2022/07/20 06:49:46;;;;;;;7.30;4.00;;;;;;;30.88;31.50;101230.09;5049886;28;20041;-67
2022/07/20 06:52:12;;;;;;;9.25;4.30;;;;;;;30.01;31.66;101233.38;5043795;28;20041;-68
2022/07/20 06:54:38;;;;;;;11.00;3.78;;;;;;;29.86;32.20;101231.53;5056059;28;20459;-67
2022/07/20 06:57:05;;;;;;;8.10;3.60;;;;;;;30.72;32.51;101241.22;5053856;28;20044;-68
2022/07/20 06:59:31;;;;;;;9.13;4.15;;;;;;;31.24;32.21;101245.28;5066431;28;20102;-68
2022/07/20 07:01:59;;;;;;;8.82;4.00;;;;;;;32.19;28.29;101240.56;5067740;28;20488;-68
2022/07/20 07:04:26;;;;;;;12.65;3.95;;;;;;;31.18;29.93;101241.53;5066573;28;20048;-68
2022/07/20 07:06:52;;;;;;;8.98;4.38;;;;;;;30.80;30.62;101245.66;5066938;28;20049;-68
2022/07/20 07:09:19;;;;;;;13.10;4.20;;;;;;;29.91;31.80;101245.31;5067406;28;20060;-68
2022/07/20 07:11:45;;;;;;;8.25;4.22;;;;;;;30.64;31.57;101241.38;5065303;28;20068;-68
2022/07/20 07:14:11;;;;;;;8.35;3.90;;;;;;;30.85;30.66;101246.75;5068838;28;20145;-68
2022/07/20 07:16:38;;;;;;;6.63;3.97;;;;;;;31.54;30.31;101244.00;5073363;28;20391;-68
2022/07/20 07:19:05;;;;;;;8.02;3.97;;;;;;;31.57;31.49;101243.56;5088294;28;20576;-68
2022/07/20 07:21:32;;;;;;;8.50;3.63;;;;;;;31.69;30.17;101233.81;5088854;28;20047;-68
2022/07/20 07:23:58;;;;;;;10.50;4.10;;;;;;;32.53;28.66;101234.09;5067640;28;20037;-68
2022/07/20 07:26:24;;;;;;;12.77;3.70;;;;;;;33.54;28.40;101237.16;5067481;28;20045;-68
2022/07/20 07:28:51;;;;;;;7.72;4.63;;;;;;;34.07;26.67;101238.50;5068139;28;20487;-68
2022/07/20 07:31:18;;;;;;;8.05;4.07;;;;;;;34.57;28.12;101239.38;5067550;28;20170;-68
2022/07/20 07:33:45;;;;;;;8.75;4.05;;;;;;;33.66;26.86;101241.75;5068379;28;20044;-68
2022/07/20 07:36:13;;;;;;;7.25;4.10;;;;;;;33.32;28.34;101236.66;5068755;28;20098;-68
2022/07/20 07:38:39;;;;;;;4.50;3.53;;;;;;;34.91;25.51;101234.44;5067796;28;20109;-68
2022/07/20 07:41:06;;;;;;;8.35;3.50;;;;;;;34.22;26.36;101230.06;5067539;28;20048;-68
2022/07/20 07:43:32;;;;;;;5.63;3.78;;;;;;;34.79;26.02;101238.97;5069208;28;20098;-68
2022/07/20 07:45:59;;;;;;;5.55;3.47;;;;;;;35.13;26.12;101246.56;5067843;28;20106;-68
2022/07/20 07:48:25;;;;;;;7.72;3.58;;;;;;;34.08;25.09;101232.00;5067457;28;20040;-67
2022/07/20 07:50:51;;;;;;;8.93;3.67;;;;;;;34.63;28.08;101237.66;5068896;28;20144;-67
2022/07/20 07:53:19;;;;;;;12.02;4.07;;;;;;;35.21;25.49;101235.38;5067773;28;20539;-67
2022/07/20 07:55:46;;;;;;;7.18;3.67;;;;;;;35.14;24.76;101229.16;5066716;28;20484;-67
2022/07/20 07:58:12;;;;;;;7.15;3.05;;;;;;;35.05;26.33;101228.59;5069567;28;20094;-67
2022/07/20 08:00:40;;;;;;;11.75;3.70;;;;;;;35.88;25.02;101226.06;5067769;28;20045;-68
2022/07/20 08:03:07;;;;;;;4.43;3.58;;;;;;;35.72;23.56;101226.72;5067053;28;20110;-67
2022/07/20 08:05:34;;;;;;;5.57;3.90;;;;;;;36.32;24.92;101232.06;5068185;28;20071;-67
2022/07/20 08:08:06;;;;;;;6.35;3.40;;;;;;;36.81;23.67;101234.31;5066383;28;20045;-67
2022/07/20 08:10:34;;;;;;;9.73;3.97;;;;;;;36.77;23.73;101229.59;5066910;28;20393;-67
2022/07/20 08:13:01;;;;;;;9.35;3.72;;;;;;;35.43;23.08;101232.97;5067594;28;20710;-67
2022/07/20 08:15:27;;;;;;;6.07;3.63;;;;;;;35.17;24.42;101234.16;5068464;28;20060;-67
2022/07/20 08:17:53;;;;;;;14.80;4.35;;;;;;;36.17;24.39;101238.00;5052504;28;20087;-67
2022/07/20 08:20:22;;;;;;;5.57;4.03;;;;;;;36.10;27.76;101231.81;5049591;28;20106;-67
2022/07/20 08:22:48;;;;;;;5.53;3.60;;;;;;;36.81;23.03;101230.78;5070239;28;20503;-67
2022/07/20 08:25:15;;;;;;;11.55;3.80;;;;;;;36.80;23.15;101229.97;5051902;28;20091;-67
2022/07/20 08:27:43;;;;;;;4.80;3.30;;;;;;;37.72;23.61;101232.66;5067506;28;20048;-67
2022/07/20 08:30:10;;;;;;;5.32;4.00;;;;;;;36.95;23.83;101222.09;5066880;28;20056;-67
2022/07/20 08:32:37;;;;;;;9.13;3.85;;;;;;;36.97;23.53;101236.31;5066770;28;20500;-67
2022/07/20 08:35:03;;;;;;;8.95;3.63;;;;;;;36.80;23.36;101234.59;5067334;28;20720;-67
2022/07/20 08:37:30;;;;;;;8.52;3.75;;;;;;;36.18;23.34;101234.19;5067358;28;20130;-67
2022/07/20 08:39:56;;;;;;;12.57;4.05;;;;;;;37.10;22.90;101235.28;5067057;28;20040;-67
2022/07/20 08:42:23;;;;;;;8.45;3.95;;;;;;;36.98;22.23;101228.97;5068539;28;20053;-67
2022/07/20 08:44:51;;;;;;;9.45;4.43;;;;;;;37.20;24.00;101234.63;5067444;28;20066;-67
2022/07/20 08:47:18;;;;;;;10.55;3.78;;;;;;;37.80;22.69;101224.06;5063091;28;20086;-67
2022/07/20 08:49:46;;;;;;;6.50;3.88;;;;;;;37.81;21.64;101225.69;5058386;28;20097;-68
2022/07/20 08:52:13;;;;;;;10.82;3.70;;;;;;;38.30;23.17;101219.44;5058275;28;20700;-68
2022/07/20 08:54:39;;;;;;;4.50;3.60;;;;;;;38.44;21.84;101212.56;5066636;28;20090;-68
2022/07/20 08:57:08;;;;;;;9.73;3.78;;;;;;;38.63;20.67;101217.75;5067843;28;20037;-68
2022/07/20 08:59:35;;;;;;;6.63;3.28;;;;;;;38.72;21.29;101206.13;5066626;28;20044;-68
2022/07/20 09:02:05;;;;;;;5.30;3.53;;;;;;;38.55;21.77;101220.91;5066410;28;20094;-68
2022/07/20 09:04:32;;;;;;;6.53;3.20;;;;;;;38.89;20.80;101204.19;5062201;28;20056;-67
2022/07/20 09:06:58;;;;;;;6.55;3.65;;;;;;;38.97;20.89;101202.91;5065346;28;20496;-67
2022/07/20 09:09:25;;;;;;;8.70;3.30;;;;;;;38.61;21.61;101196.09;5066580;28;20040;-67
2022/07/20 09:11:52;;;;;;;11.52;3.90;;;;;;;37.54;21.02;101211.81;5066135;28;20050;-67
2022/07/20 09:14:40;;;;;;;4.18;3.00;;;;;;;38.35;20.15;101202.25;5066908;28;20118;-68
2022/07/20 09:17:21;;;;;;;7.13;3.40;;;;;;;37.89;19.95;101200.66;5052917;28;20590;-68
2022/07/20 09:19:54;;;;;;;10.63;3.60;;;;;;;37.91;20.27;101207.56;5046003;28;20045;-68
2022/07/20 09:22:30;;;;;;;7.28;3.45;;;;;;;38.40;19.23;101200.44;5045613;28;20131;-68
2022/07/20 09:25:06;;;;;;;5.22;3.03;;;;;;;39.38;20.21;101190.50;5047151;28;20074;-68
2022/07/20 09:27:33;;;;;;;9.60;2.70;;;;;;;38.34;18.96;101184.16;5035856;28;20377;-68
2022/07/20 09:30:04;;;;;;;8.30;3.40;;;;;;;38.74;20.52;101183.91;5058175;28;20041;-67
2022/07/20 09:32:48;;;;;;;6.60;3.38;;;;;;;39.14;21.22;101183.59;5065190;28;20045;-67
2022/07/20 09:35:15;;;;;;;8.80;3.10;;;;;;;39.47;19.26;101179.91;5066364;28;21979;-67
2022/07/20 09:37:41;;;;;;;9.05;2.80;;;;;;;38.59;19.04;101184.53;5065893;28;20044;-67
2022/07/20 09:40:09;;;;;;;12.05;3.08;;;;;;;39.61;18.53;101178.38;5067379;28;20044;-68
2022/07/20 09:42:39;;;;;;;11.02;3.20;;;;;;;39.86;17.31;101171.22;5065607;28;20053;-68
2022/07/20 09:45:20;;;;;;;5.85;2.90;;;;;;;40.33;18.57;101178.72;5066803;28;20044;-68
2022/07/20 09:48:07;;;;;;;7.65;3.25;;;;;;;38.42;18.56;101179.13;5069448;28;20093;-67
2022/07/20 09:50:36;;;;;;;7.70;3.05;;;;;;;39.72;17.95;101172.75;5076757;28;20094;-67
2022/07/20 09:53:02;;;;;;;10.88;2.97;;;;;;;40.18;19.20;101176.69;5071584;28;20045;-67
2022/07/20 09:55:30;;;;;;;12.55;3.40;;;;;;;40.02;18.88;101172.19;5065587;28;20098;-67
2022/07/20 09:57:56;;;;;;;8.57;3.35;;;;;;;40.68;19.90;101164.38;5064192;28;20099;-67
2022/07/20 10:00:23;;;;;;;7.43;3.55;;;;;;;40.85;15.97;101181.50;5045425;28;20049;-67
2022/07/20 10:02:53;;;;;;;8.65;3.58;;;;;;;41.02;15.28;101176.63;5045562;28;20041;-67
2022/07/20 10:05:22;;;;;;;8.48;3.60;;;;;;;41.66;14.67;101168.81;5046000;28;20123;-67
2022/07/20 10:07:50;;;;;;;5.90;3.40;;;;;;;39.90;15.33;101166.03;5055373;28;20446;-67
2022/07/20 10:10:16;;;;;;;9.82;3.63;;;;;;;40.25;16.22;101180.03;5058648;28;20098;-67
2022/07/20 10:12:43;;;;;;;10.02;3.55;;;;;;;39.66;16.78;101162.78;5066426;28;20093;-67
2022/07/20 10:15:14;;;;;;;9.07;3.03;;;;;;;40.10;16.52;101159.88;5048138;28;20072;-67
2022/07/20 10:17:42;;;;;;;6.00;3.05;;;;;;;39.67;15.60;101166.34;5066072;28;20045;-67
2022/07/20 10:20:30;;;;;;;7.30;3.28;;;;;;;39.69;16.54;101161.44;5065958;28;20750;-67
2022/07/20 10:23:24;;;;;;;5.35;3.28;;;;;;;40.62;16.77;101159.94;5065543;28;20049;-67
2022/07/20 10:25:50;;;;;;;10.00;3.70;;;;;;;39.93;15.81;101154.53;5058093;28;20478;-67
2022/07/20 10:28:28;;;;;;;9.13;3.58;;;;;;;38.81;17.65;101151.66;5065165;28;20045;-67
2022/07/20 10:30:56;;;;;;;7.85;3.30;;;;;;;39.11;17.07;101149.31;5068618;28;20044;-67
2022/07/20 10:33:23;;;;;;;8.63;2.72;;;;;;;39.15;17.37;101150.44;5068893;28;20053;-67
2022/07/20 10:35:52;;;;;;;10.38;3.58;;;;;;;38.76;15.75;101157.09;5068138;28;20044;-67
2022/07/20 10:38:20;;;;;;;5.65;3.08;;;;;;;38.90;16.38;101153.75;5070539;28;20122;-67
2022/07/20 10:44:21;;;;;;;11.57;3.00;;;;;;;38.56;16.28;101145.84;5068038;28;20047;-67
2022/07/20 10:46:49;;;;;;;7.40;3.53;;;;;;;38.43;17.45;101145.13;5069270;28;20476;-67
2022/07/20 10:49:16;;;;;;;8.10;3.22;;;;;;;39.49;16.45;101136.56;5061971;28;20041;-67
2022/07/20 10:51:45;;;;;;;9.25;2.63;;;;;;;39.84;16.19;101147.84;5048575;28;20065;-67
2022/07/20 10:54:36;;;;;;;10.13;3.05;;;;;;;40.80;16.18;101135.53;5048086;28;20520;-68
2022/07/20 10:57:04;;;;;;;15.38;3.40;;;;;;;40.70;14.88;101140.19;5038813;28;20094;-67
2022/07/20 10:59:30;;;;;;;5.88;2.80;;;;;;;39.15;15.69;101150.44;5048140;28;20099;-67
2022/07/20 11:01:56;;;;;;;10.25;2.85;;;;;;;39.17;16.62;101137.31;5050570;28;20037;-67
2022/07/20 11:04:23;;;;;;;8.80;3.17;;;;;;;39.07;16.58;101142.69;5051732;28;20048;-67
2022/07/20 11:06:51;;;;;;;7.78;3.15;;;;;;;39.49;17.29;101129.16;5068644;28;20086;-67
2022/07/20 11:09:17;;;;;;;8.52;2.88;;;;;;;39.14;16.04;101137.81;5069472;28;20040;-67
2022/07/20 11:11:44;;;;;;;8.25;2.72;;;;;;;39.17;19.15;101131.84;5068868;28;20049;-67
2022/07/20 11:14:11;;;;;;;5.35;2.80;;;;;;;38.59;17.27;101137.13;5069231;28;20044;-67
2022/07/20 11:16:38;;;;;;;12.98;2.85;;;;;;;39.82;16.21;101123.41;5069720;28;20048;-67
2022/07/20 11:19:06;;;;;;;9.35;2.95;;;;;;;39.69;16.64;101123.00;5067868;28;20089;-67
2022/07/20 11:21:34;;;;;;;7.22;2.72;;;;;;;39.77;15.87;101115.13;5049329;28;20061;-67
2022/07/20 11:24:02;;;;;;;5.32;2.80;;;;;;;40.41;17.73;101122.44;5068803;28;20044;-67
2022/07/20 11:26:28;;;;;;;7.30;2.80;;;;;;;40.09;17.04;101117.00;5068363;28;20048;-67
2022/07/20 11:28:57;;;;;;;8.15;2.95;;;;;;;39.36;17.69;101115.84;5066773;28;20114;-67
2022/07/20 11:31:26;;;;;;;6.68;2.80;;;;;;;39.39;16.56;101112.59;5069782;28;20044;-67